Time,TemperatureF,DewpointF,PressureIn,WindDirection,WindDirectionDegrees,WindSpeedMPH,WindSpeedGustMPH,Humidity,HourlyPrecipIn,Conditions,Clouds,dailyrainin,SoftwareType,DateUTC
2013-07-13 00:04:00,76.8,61.8,29.97,SSE,157,8.9,-999.0,60,-99.99,,,0.00,Acu-Link.com,2013-07-13 05:04:00,
2013-07-13 00:19:00,76.8,61.4,29.97,SSE,157,8.9,-999.0,59,-99.99,,,0.00,Acu-Link.com,2013-07-13 05:19:00,
2013-07-13 00:35:00,76.5,61.1,29.97,SE,135,4.2,-999.0,59,-99.99,,,0.00,Acu-Link.com,2013-07-13 05:35:00,
2013-07-13 00:50:00,76.3,60.9,29.97,SE,135,4.7,-999.0,59,-99.99,,,0.00,Acu-Link.com,2013-07-13 05:50:00,
2013-07-13 01:05:00,75.9,60.5,29.98,SE,135,2.2,-999.0,59,-99.99,,,0.00,Acu-Link.com,2013-07-13 06:05:00,
2013-07-13 01:20:00,75.7,60.3,29.99,ESE,112,2.2,-999.0,59,-99.99,,,0.00,Acu-Link.com,2013-07-13 06:20:00,
2013-07-13 01:35:00,75.9,60.5,29.99,ESE,112,2.2,-999.0,59,-99.99,,,0.00,Acu-Link.com,2013-07-13 06:35:00,
2013-07-13 01:51:00,75.9,60.0,29.98,SE,135,3.7,-999.0,58,-99.99,,,0.00,Acu-Link.com,2013-07-13 06:51:00,
2013-07-13 02:06:00,76.3,60.4,29.99,SSE,157,5.3,-999.0,58,-99.99,,,0.00,Acu-Link.com,2013-07-13 07:06:00,
2013-07-13 02:21:00,76.1,60.2,30.00,SSW,202,4.2,-999.0,58,-99.99,,,0.00,Acu-Link.com,2013-07-13 07:21:00,
2013-07-13 02:36:00,76.1,60.2,29.99,South,180,6.3,-999.0,58,-99.99,,,0.00,Acu-Link.com,2013-07-13 07:36:00,
2013-07-13 02:51:00,75.7,60.3,29.99,South,180,6.3,-999.0,59,-99.99,,,0.00,Acu-Link.com,2013-07-13 07:51:00,
2013-07-13 03:07:00,75.2,60.8,29.99,SE,135,5.8,-999.0,61,-99.99,,,0.00,Acu-Link.com,2013-07-13 08:07:00,
2013-07-13 03:22:00,75.2,60.8,29.99,South,180,5.8,-999.0,61,-99.99,,,0.00,Acu-Link.com,2013-07-13 08:22:00,
2013-07-13 03:37:00,75.0,60.6,29.99,ESE,112,5.8,-999.0,61,-99.99,,,0.00,Acu-Link.com,2013-07-13 08:37:00,
2013-07-13 03:52:00,74.8,60.4,29.99,SSW,202,4.7,-999.0,61,-99.99,,,0.00,Acu-Link.com,2013-07-13 08:52:00,
2013-07-13 04:07:00,74.7,60.3,29.98,SSE,157,4.7,-999.0,61,-99.99,,,0.00,Acu-Link.com,2013-07-13 09:07:00,
2013-07-13 04:22:00,74.5,60.2,29.99,SE,135,10.9,-999.0,61,-99.99,,,0.00,Acu-Link.com,2013-07-13 09:22:00,
2013-07-13 04:37:00,74.5,59.7,29.99,South,180,5.8,-999.0,60,-99.99,,,0.00,Acu-Link.com,2013-07-13 09:37:00,
2013-07-13 04:53:00,73.9,59.6,30.00,SSE,157,6.8,-999.0,61,-99.99,,,0.00,Acu-Link.com,2013-07-13 09:53:00,
2013-07-13 05:08:00,73.6,59.8,30.00,South,180,4.2,-999.0,62,-99.99,,,0.00,Acu-Link.com,2013-07-13 10:08:00,
2013-07-13 05:23:00,73.4,59.6,30.01,ESE,112,2.7,-999.0,62,-99.99,,,0.00,Acu-Link.com,2013-07-13 10:23:00,
2013-07-13 05:38:00,73.2,59.8,30.01,SSW,202,2.7,-999.0,63,-99.99,,,0.00,Acu-Link.com,2013-07-13 10:38:00,
2013-07-13 05:54:00,73.0,59.6,30.01,SSE,157,2.7,-999.0,63,-99.99,,,0.00,Acu-Link.com,2013-07-13 10:54:00,
2013-07-13 06:09:00,73.0,59.6,30.01,South,180,4.7,-999.0,63,-99.99,,,0.00,Acu-Link.com,2013-07-13 11:09:00,
2013-07-13 06:24:00,72.9,59.6,30.00,SSE,157,8.3,-999.0,63,-99.99,,,0.00,Acu-Link.com,2013-07-13 11:24:00,
2013-07-13 06:39:00,67.8,62.4,30.00,SSE,157,9.9,-999.0,83,-99.99,,,0.01,Acu-Link.com,2013-07-13 11:39:00,
2013-07-13 06:55:00,66.6,62.9,29.98,South,180,6.3,-999.0,88,-99.99,,,0.24,Acu-Link.com,2013-07-13 11:55:00,
2013-07-13 07:10:00,66.2,62.9,29.98,SSW,202,6.8,-999.0,89,-99.99,,,0.28,Acu-Link.com,2013-07-13 12:10:00,
2013-07-13 07:25:00,66.6,63.3,29.99,SSE,157,6.8,-999.0,89,-99.99,,,0.29,Acu-Link.com,2013-07-13 12:25:00,
2013-07-13 07:40:00,66.9,63.2,29.99,South,180,4.2,-999.0,88,-99.99,,,0.29,Acu-Link.com,2013-07-13 12:40:00,
2013-07-13 07:56:00,67.1,63.4,30.00,South,180,4.7,-999.0,88,-99.99,,,0.29,Acu-Link.com,2013-07-13 12:56:00,
2013-07-13 08:11:00,68.0,64.3,30.01,SSE,157,3.2,-999.0,88,-99.99,,,0.29,Acu-Link.com,2013-07-13 13:11:00,
2013-07-13 08:26:00,69.4,65.4,30.01,SSE,157,0.0,-999.0,87,-99.99,,,0.29,Acu-Link.com,2013-07-13 13:26:00,
2013-07-13 08:41:00,70.5,65.1,30.01,SSE,157,2.7,-999.0,83,-99.99,,,0.29,Acu-Link.com,2013-07-13 13:41:00,
2013-07-13 08:56:00,70.9,64.4,30.00,SSW,202,5.8,-999.0,80,-99.99,,,0.29,Acu-Link.com,2013-07-13 13:56:00,
2013-07-13 09:12:00,71.6,65.1,30.01,SSW,202,4.2,-999.0,80,-99.99,,,0.30,Acu-Link.com,2013-07-13 14:12:00,
2013-07-13 09:27:00,72.0,65.1,30.01,SE,135,3.2,-999.0,79,-99.99,,,0.30,Acu-Link.com,2013-07-13 14:27:00,
2013-07-13 09:42:00,73.4,65.0,30.01,SSE,157,3.7,-999.0,75,-99.99,,,0.30,Acu-Link.com,2013-07-13 14:42:00,
2013-07-13 09:58:00,74.5,65.3,30.02,SSE,157,3.7,-999.0,73,-99.99,,,0.30,Acu-Link.com,2013-07-13 14:58:00,
2013-07-13 10:13:00,75.0,65.7,30.01,ESE,112,6.8,-999.0,73,-99.99,,,0.30,Acu-Link.com,2013-07-13 15:13:00,
2013-07-13 10:28:00,76.1,66.4,30.01,ESE,112,3.2,-999.0,72,-99.99,,,0.30,Acu-Link.com,2013-07-13 15:28:00,
2013-07-13 10:43:00,77.0,66.0,30.01,SE,135,3.7,-999.0,69,-99.99,,,0.30,Acu-Link.com,2013-07-13 15:43:00,
2013-07-13 10:58:00,78.3,66.8,30.01,South,180,6.8,-999.0,68,-99.99,,,0.30,Acu-Link.com,2013-07-13 15:58:00,
2013-07-13 11:14:00,80.2,67.8,30.02,South,180,4.7,-999.0,66,-99.99,,,0.30,Acu-Link.com,2013-07-13 16:14:00,
2013-07-13 11:29:00,84.0,68.6,30.02,SE,135,6.3,-999.0,60,-99.99,,,0.30,Acu-Link.com,2013-07-13 16:29:00,
2013-07-13 11:44:00,85.1,67.6,30.02,SW,225,4.2,-999.0,56,-99.99,,,0.30,Acu-Link.com,2013-07-13 16:44:00,
2013-07-13 12:00:00,80.1,67.3,30.01,South,180,6.3,-999.0,65,-99.99,,,0.30,Acu-Link.com,2013-07-13 17:00:00,
2013-07-13 12:15:00,82.4,69.0,30.01,South,180,6.8,-999.0,64,-99.99,,,0.30,Acu-Link.com,2013-07-13 17:15:00,
2013-07-13 12:30:00,82.9,68.0,30.01,SSW,202,8.3,-999.0,61,-99.99,,,0.30,Acu-Link.com,2013-07-13 17:30:00,
2013-07-13 12:45:00,81.3,68.8,30.01,South,180,5.8,-999.0,66,-99.99,,,0.30,Acu-Link.com,2013-07-13 17:45:00,
2013-07-13 13:00:00,81.3,68.8,30.00,SSE,157,4.7,-999.0,66,-99.99,,,0.30,Acu-Link.com,2013-07-13 18:00:00,
2013-07-13 13:16:00,80.2,68.7,30.00,SE,135,7.3,-999.0,68,-99.99,,,0.30,Acu-Link.com,2013-07-13 18:16:00,
2013-07-13 13:31:00,83.7,70.2,29.99,SE,135,8.9,-999.0,64,-99.99,,,0.30,Acu-Link.com,2013-07-13 18:31:00,
2013-07-13 13:46:00,83.5,70.9,29.99,SE,135,4.2,-999.0,66,-99.99,,,0.30,Acu-Link.com,2013-07-13 18:46:00,
2013-07-13 14:02:00,86.7,71.6,29.99,ENE,67,5.3,-999.0,61,-99.99,,,0.30,Acu-Link.com,2013-07-13 19:02:00,
2013-07-13 14:17:00,87.1,72.5,29.99,SE,135,7.8,-999.0,62,-99.99,,,0.30,Acu-Link.com,2013-07-13 19:17:00,
2013-07-13 14:32:00,86.2,72.1,29.99,ESE,112,6.8,-999.0,63,-99.99,,,0.30,Acu-Link.com,2013-07-13 19:32:00,
2013-07-13 14:47:00,85.1,71.5,29.98,SSE,157,6.8,-999.0,64,-99.99,,,0.30,Acu-Link.com,2013-07-13 19:47:00,
2013-07-13 15:03:00,87.6,73.4,29.97,ESE,112,6.8,-999.0,63,-99.99,,,0.30,Acu-Link.com,2013-07-13 20:03:00,
2013-07-13 15:18:00,89.1,73.4,29.97,South,180,7.8,-999.0,60,-99.99,,,0.30,Acu-Link.com,2013-07-13 20:18:00,
2013-07-13 15:34:00,91.6,74.7,29.97,ESE,112,3.7,-999.0,58,-99.99,,,0.30,Acu-Link.com,2013-07-13 20:34:00,
2013-07-13 15:49:00,89.2,74.4,29.96,SSE,157,5.3,-999.0,62,-99.99,,,0.30,Acu-Link.com,2013-07-13 20:49:00,
2013-07-13 16:04:00,85.6,72.5,29.97,South,180,9.9,-999.0,65,-99.99,,,0.30,Acu-Link.com,2013-07-13 21:04:00,
2013-07-13 16:19:00,84.9,72.2,29.96,South,180,8.3,-999.0,66,-99.99,,,0.30,Acu-Link.com,2013-07-13 21:19:00,
2013-07-13 16:34:00,88.9,74.6,29.97,SE,135,5.3,-999.0,63,-99.99,,,0.30,Acu-Link.com,2013-07-13 21:34:00,
2013-07-13 16:50:00,88.0,73.8,29.97,South,180,5.3,-999.0,63,-99.99,,,0.30,Acu-Link.com,2013-07-13 21:50:00,
2013-07-13 17:05:00,87.4,73.7,29.97,SSE,157,5.3,-999.0,64,-99.99,,,0.30,Acu-Link.com,2013-07-13 22:05:00,
2013-07-13 17:20:00,88.5,74.3,29.96,ESE,112,6.8,-999.0,63,-99.99,,,0.30,Acu-Link.com,2013-07-13 22:20:00,
2013-07-13 17:35:00,87.6,73.4,29.96,SE,135,7.3,-999.0,63,-99.99,,,0.30,Acu-Link.com,2013-07-13 22:35:00,
2013-07-13 17:50:00,88.3,73.6,29.95,SSE,157,2.7,-999.0,62,-99.99,,,0.30,Acu-Link.com,2013-07-13 22:50:00,
2013-07-13 18:06:00,90.5,74.7,29.95,West,270,4.2,-999.0,60,-99.99,,,0.30,Acu-Link.com,2013-07-13 23:06:00,
2013-07-13 18:21:00,86.5,73.8,29.95,SSW,202,6.8,-999.0,66,-99.99,,,0.30,Acu-Link.com,2013-07-13 23:21:00,
2013-07-13 18:36:00,86.0,73.7,29.94,SSE,157,4.2,-999.0,67,-99.99,,,0.30,Acu-Link.com,2013-07-13 23:36:00,
2013-07-13 18:51:00,85.8,74.0,29.95,South,180,3.2,-999.0,68,-99.99,,,0.30,Acu-Link.com,2013-07-13 23:51:00,
2013-07-13 19:07:00,84.2,73.8,29.94,SSW,202,3.7,-999.0,71,-99.99,,,0.30,Acu-Link.com,2013-07-14 00:07:00,
2013-07-13 19:22:00,83.7,73.7,29.95,ESE,112,4.7,-999.0,72,-99.99,,,0.30,Acu-Link.com,2013-07-14 00:22:00,
2013-07-13 19:37:00,83.1,73.1,29.95,SE,135,6.3,-999.0,72,-99.99,,,0.30,Acu-Link.com,2013-07-14 00:37:00,
2013-07-13 19:52:00,82.0,72.1,29.95,WSW,247,5.8,-999.0,72,-99.99,,,0.30,Acu-Link.com,2013-07-14 00:52:00,
2013-07-13 20:08:00,81.3,72.2,29.96,ESE,112,3.2,-999.0,74,-99.99,,,0.30,Acu-Link.com,2013-07-14 01:08:00,
2013-07-13 20:23:00,80.6,72.3,29.96,SE,135,2.7,-999.0,76,-99.99,,,0.30,Acu-Link.com,2013-07-14 01:23:00,
2013-07-13 20:38:00,79.9,72.0,29.96,SSE,157,2.7,-999.0,77,-99.99,,,0.30,Acu-Link.com,2013-07-14 01:38:00,
2013-07-13 20:53:00,78.8,71.7,29.96,ESE,112,3.2,-999.0,79,-99.99,,,0.30,Acu-Link.com,2013-07-14 01:53:00,
2013-07-13 21:08:00,78.3,71.2,29.97,ESE,112,7.3,-999.0,79,-99.99,,,0.30,Acu-Link.com,2013-07-14 02:08:00,
2013-07-13 21:24:00,77.7,70.3,29.97,SE,135,2.7,-999.0,78,-99.99,,,0.30,Acu-Link.com,2013-07-14 02:24:00,
2013-07-13 21:39:00,77.4,70.0,29.97,SSE,157,10.4,-999.0,78,-99.99,,,0.30,Acu-Link.com,2013-07-14 02:39:00,
2013-07-13 21:54:00,77.4,69.2,29.98,SSE,157,5.3,-999.0,76,-99.99,,,0.30,Acu-Link.com,2013-07-14 02:54:00,
2013-07-13 22:10:00,77.4,68.8,29.99,SE,135,4.7,-999.0,75,-99.99,,,0.30,Acu-Link.com,2013-07-14 03:10:00,
2013-07-13 22:25:00,77.2,68.3,29.99,SSE,157,5.8,-999.0,74,-99.99,,,0.30,Acu-Link.com,2013-07-14 03:25:00,
2013-07-13 22:40:00,77.0,67.7,30.01,SE,135,6.3,-999.0,73,-99.99,,,0.30,Acu-Link.com,2013-07-14 03:40:00,
2013-07-13 22:55:00,76.1,67.6,30.02,South,180,4.7,-999.0,75,-99.99,,,0.30,Acu-Link.com,2013-07-14 03:55:00,
2013-07-13 23:11:00,72.1,68.3,30.00,SSE,157,7.8,-999.0,88,-99.99,,,0.34,Acu-Link.com,2013-07-14 04:11:00,
2013-07-13 23:26:00,71.1,68.3,29.98,South,180,11.9,-999.0,91,-99.99,,,0.39,Acu-Link.com,2013-07-14 04:26:00,
2013-07-13 23:41:00,70.5,67.7,29.97,ESE,112,5.8,-999.0,91,-99.99,,,0.40,Acu-Link.com,2013-07-14 04:41:00,
2013-07-13 23:56:00,70.5,67.7,29.98,SSE,157,6.8,-999.0,91,-99.99,,,0.46,Acu-Link.com,2013-07-14 04:56:00,